Time;durP1;ratioP1;P1;durP2;ratioP2;P2;SDS_P1;SDS_P2;PMS_P1;PMS_P2;Temp;Humidity;BMP_temperature;BMP_pressure;BME280_temperature;BME280_humidity;BME280_pressure;Samples;Min_cycle;Max_cycle;Signal;HPM_P1;HPM_P2
2023/04/22 00:02:15;;;;;;;13.67;12.30;;;15.00;33.90;;;;;;5034032;28;20166;-49
2023/04/22 00:04:45;;;;;;;13.57;12.20;;;15.00;34.00;;;;;;5034288;28;20178;-48
2023/04/22 00:07:11;;;;;;;14.88;12.50;;;14.90;34.20;;;;;;5032925;28;20182;-49
2023/04/22 00:09:37;;;;;;;13.65;12.25;;;14.90;34.90;;;;;;5034061;28;20221;-49
2023/04/22 00:12:03;;;;;;;15.50;13.27;;;14.90;34.30;;;;;;5033697;28;20210;-48
2023/04/22 00:14:29;;;;;;;13.70;12.33;;;14.80;34.20;;;;;;5033662;28;20449;-49
2023/04/22 00:16:55;;;;;;;13.03;11.37;;;14.80;34.20;;;;;;5033673;28;20404;-49
2023/04/22 00:19:21;;;;;;;16.73;11.30;;;14.80;34.20;;;;;;5033653;28;20273;-49
2023/04/22 00:21:47;;;;;;;13.32;12.02;;;14.80;34.20;;;;;;5033639;28;20421;-49
2023/04/22 00:24:12;;;;;;;12.80;11.50;;;14.80;34.10;;;;;;5033805;28;20576;-48
2023/04/22 00:26:38;;;;;;;13.20;11.17;;;14.70;34.20;;;;;;5033937;28;20174;-49
2023/04/22 00:29:04;;;;;;;15.10;13.27;;;14.70;34.70;;;;;;5033430;28;20205;-49
2023/04/22 00:31:30;;;;;;;14.73;13.23;;;14.50;34.50;;;;;;5033411;28;20516;-48
2023/04/22 00:33:55;;;;;;;13.97;11.40;;;14.50;34.70;;;;;;5033233;28;20190;-49
2023/04/22 00:36:21;;;;;;;13.03;11.63;;;14.40;34.80;;;;;;5033400;28;20401;-49
2023/04/22 00:38:49;;;;;;;14.23;12.83;;;14.40;34.80;;;;;;5033520;28;20207;-49
2023/04/22 00:41:16;;;;;;;18.67;13.20;;;14.40;35.10;;;;;;5033535;28;20248;-49
2023/04/22 00:43:42;;;;;;;15.98;14.02;;;14.40;34.90;;;;;;5032965;28;20190;-48
2023/04/22 00:46:08;;;;;;;15.07;12.77;;;14.30;35.20;;;;;;5033052;28;20539;-48
2023/04/22 00:48:36;;;;;;;16.42;14.27;;;14.20;35.10;;;;;;5033037;28;20455;-48
2023/04/22 00:51:03;;;;;;;15.18;13.68;;;14.20;35.50;;;;;;5033006;28;20181;-49
2023/04/22 00:53:28;;;;;;;15.52;14.02;;;14.10;35.40;;;;;;5032993;28;20561;-48
2023/04/22 00:55:54;;;;;;;15.13;13.73;;;14.10;35.60;;;;;;5033021;28;20268;-49
2023/04/22 00:58:24;;;;;;;14.48;12.90;;;14.00;35.60;;;;;;5033125;28;20194;-48
2023/04/22 01:00:51;;;;;;;15.00;13.13;;;14.00;35.90;;;;;;5033102;28;20182;-48
2023/04/22 01:03:19;;;;;;;13.15;11.52;;;13.90;36.10;;;;;;5032873;28;20573;-48
2023/04/22 01:05:47;;;;;;;16.15;14.48;;;13.90;36.10;;;;;;5033115;28;20251;-48
2023/04/22 01:08:13;;;;;;;16.30;13.32;;;13.80;35.90;;;;;;5032856;28;20268;-48
2023/04/22 01:10:40;;;;;;;13.20;11.90;;;13.80;36.00;;;;;;5032686;28;20612;-48
2023/04/22 01:13:06;;;;;;;14.40;12.60;;;13.70;36.00;;;;;;5032741;28;20413;-48
2023/04/22 01:15:32;;;;;;;14.00;12.80;;;13.70;36.10;;;;;;5032768;28;20271;-49
2023/04/22 01:17:59;;;;;;;13.67;12.37;;;13.70;36.00;;;;;;5032691;28;20173;-48
2023/04/22 01:20:29;;;;;;;14.80;13.20;;;13.60;36.20;;;;;;5032794;28;20416;-48
2023/04/22 01:22:58;;;;;;;13.35;12.07;;;13.60;36.30;;;;;;5032572;28;20178;-48
2023/04/22 01:25:25;;;;;;;15.60;13.15;;;13.50;36.30;;;;;;5032368;28;20574;-48
2023/04/22 01:27:51;;;;;;;19.67;13.25;;;13.50;36.50;;;;;;5032399;28;20174;-48
2023/04/22 01:30:17;;;;;;;13.50;12.10;;;13.40;36.60;;;;;;5032248;28;20201;-49
2023/04/22 01:32:44;;;;;;;14.53;12.87;;;13.40;36.50;;;;;;5032075;28;20182;-48
2023/04/22 01:35:09;;;;;;;13.13;11.40;;;13.40;36.70;;;;;;5032211;28;20198;-48
2023/04/22 01:37:35;;;;;;;15.07;13.57;;;13.30;36.80;;;;;;5032213;28;20228;-48
2023/04/22 01:40:03;;;;;;;19.60;13.13;;;13.30;36.80;;;;;;5032402;28;20420;-48
2023/04/22 01:42:29;;;;;;;20.15;13.07;;;13.30;36.90;;;;;;5031954;28;20660;-48
2023/04/22 01:44:55;;;;;;;13.98;12.35;;;13.30;37.00;;;;;;5032471;28;20182;-48
2023/04/22 01:47:21;;;;;;;12.70;11.50;;;13.20;36.80;;;;;;5032221;28;20240;-48
2023/04/22 01:49:47;;;;;;;13.33;12.03;;;13.20;37.00;;;;;;5032424;28;20436;-48
2023/04/22 01:52:13;;;;;;;13.80;11.47;;;13.30;37.10;;;;;;5031980;28;20405;-48
2023/04/22 01:54:39;;;;;;;16.13;13.10;;;13.30;37.20;;;;;;5032080;28;20721;-48
2023/04/22 01:57:12;;;;;;;17.05;12.93;;;13.30;37.30;;;;;;5031541;28;20705;-48
2023/04/22 01:59:38;;;;;;;15.13;11.90;;;13.30;37.80;;;;;;5032232;28;20202;-48
2023/04/22 02:02:05;;;;;;;12.60;11.05;;;13.30;37.60;;;;;;5031802;28;20219;-48
2023/04/22 02:04:31;;;;;;;12.80;10.85;;;13.30;37.40;;;;;;5032261;28;20206;-48
2023/04/22 02:06:56;;;;;;;14.13;11.38;;;13.20;37.50;;;;;;5031824;28;20272;-48
2023/04/22 02:09:22;;;;;;;14.67;13.17;;;13.20;37.70;;;;;;5031816;28;20267;-48
2023/04/22 02:11:48;;;;;;;16.70;13.17;;;13.10;37.80;;;;;;5031731;28;20182;-49
2023/04/22 02:14:13;;;;;;;19.00;13.70;;;13.10;37.70;;;;;;5031859;28;20248;-48
2023/04/22 02:16:42;;;;;;;16.53;12.90;;;13.10;38.00;;;;;;5031936;28;20174;-49
2023/04/22 02:19:08;;;;;;;16.50;14.18;;;13.10;37.90;;;;;;5031773;28;20543;-48
2023/04/22 02:21:35;;;;;;;12.07;10.77;;;13.10;38.10;;;;;;5031623;28;20177;-48
2023/04/22 02:24:00;;;;;;;16.02;12.05;;;13.10;37.80;;;;;;5031885;28;20193;-48
2023/04/22 02:26:27;;;;;;;17.73;13.63;;;13.10;38.00;;;;;;5031837;28;20634;-48
2023/04/22 02:28:52;;;;;;;16.25;14.02;;;13.00;38.10;;;;;;5031696;28;20198;-48
2023/04/22 02:31:18;;;;;;;14.43;12.93;;;13.00;37.90;;;;;;5031753;28;20182;-49
2023/04/22 02:33:44;;;;;;;13.50;12.30;;;13.00;37.90;;;;;;5031716;28;20665;-49
2023/04/22 02:36:10;;;;;;;15.23;12.20;;;13.00;37.80;;;;;;5031595;28;20178;-48
2023/04/22 02:38:36;;;;;;;16.20;11.70;;;13.00;37.90;;;;;;5031890;28;20194;-48
2023/04/22 02:41:02;;;;;;;16.08;12.80;;;13.00;38.20;;;;;;5031671;28;20487;-48
2023/04/22 02:43:28;;;;;;;13.93;12.40;;;12.90;38.10;;;;;;5031559;28;20266;-48
2023/04/22 02:45:54;;;;;;;15.03;12.77;;;12.90;37.80;;;;;;5031895;28;20257;-48
2023/04/22 02:48:19;;;;;;;16.00;13.80;;;12.80;37.80;;;;;;5031543;28;20604;-48
2023/04/22 02:50:45;;;;;;;18.47;14.33;;;12.80;37.60;;;;;;5031339;28;20585;-48
2023/04/22 02:53:12;;;;;;;18.05;13.73;;;12.80;37.60;;;;;;5031254;28;20205;-48
2023/04/22 02:55:40;;;;;;;23.50;14.73;;;12.70;37.60;;;;;;5031444;28;20200;-48
2023/04/22 02:58:06;;;;;;;18.40;15.25;;;12.70;37.70;;;;;;5031674;28;20166;-48
2023/04/22 03:00:32;;;;;;;17.40;14.20;;;12.60;37.70;;;;;;5031354;28;20182;-48
2023/04/22 03:02:57;;;;;;;15.23;13.33;;;12.60;37.90;;;;;;5031440;28;20166;-48
2023/04/22 03:05:23;;;;;;;17.20;14.67;;;12.50;38.20;;;;;;5031280;28;20186;-48
2023/04/22 03:07:49;;;;;;;21.57;18.97;;;12.40;38.60;;;;;;5031604;28;20170;-48
2023/04/22 03:10:15;;;;;;;25.40;18.77;;;12.30;38.40;;;;;;5034499;28;20209;-48
2023/04/22 03:12:40;;;;;;;24.73;17.63;;;12.30;38.30;;;;;;5035213;28;20765;-48
2023/04/22 03:15:07;;;;;;;19.00;16.60;;;12.30;38.10;;;;;;5035209;28;20230;-48
2023/04/22 03:17:33;;;;;;;22.17;16.52;;;12.20;38.30;;;;;;5034816;28;20252;-48
2023/04/22 03:19:59;;;;;;;18.50;15.18;;;12.20;38.20;;;;;;5034737;28;20853;-48
2023/04/22 03:22:25;;;;;;;19.15;15.25;;;12.10;38.30;;;;;;5034564;28;20162;-48
2023/04/22 03:24:51;;;;;;;20.42;16.27;;;12.00;38.40;;;;;;5034888;28;20182;-48
2023/04/22 03:27:17;;;;;;;18.13;16.13;;;12.00;38.40;;;;;;5034722;28;20173;-48
2023/04/22 03:29:42;;;;;;;17.23;15.40;;;12.00;38.60;;;;;;5034564;28;20197;-48
2023/04/22 03:32:08;;;;;;;17.70;14.07;;;12.00;38.70;;;;;;5034555;28;20181;-48
2023/04/22 03:34:34;;;;;;;15.70;14.10;;;11.90;38.90;;;;;;5034683;28;20202;-48
2023/04/22 03:36:59;;;;;;;17.13;14.03;;;11.90;38.80;;;;;;5034546;28;20642;-48
2023/04/22 03:39:25;;;;;;;14.50;13.00;;;11.80;38.80;;;;;;5034438;28;20190;-48
2023/04/22 03:41:51;;;;;;;15.23;12.70;;;11.80;39.00;;;;;;5034269;28;20177;-49
2023/04/22 03:44:16;;;;;;;14.33;12.00;;;11.70;39.30;;;;;;5034402;28;20174;-48
2023/04/22 03:46:42;;;;;;;15.10;12.13;;;11.70;39.50;;;;;;5034508;28;20211;-49
2023/04/22 03:49:08;;;;;;;15.90;12.30;;;11.60;39.50;;;;;;5034203;28;20605;-48
2023/04/22 03:51:34;;;;;;;19.23;14.37;;;11.60;39.70;;;;;;5034117;28;20178;-48
2023/04/22 03:53:59;;;;;;;16.10;12.50;;;11.50;39.70;;;;;;5034023;28;20204;-48
2023/04/22 03:56:25;;;;;;;19.97;13.47;;;11.50;39.40;;;;;;5034108;28;20173;-48
2023/04/22 03:58:51;;;;;;;14.60;13.20;;;11.50;39.50;;;;;;5033951;28;20247;-48
2023/04/22 04:01:16;;;;;;;17.60;12.83;;;11.50;39.30;;;;;;5033974;28;20261;-48
2023/04/22 04:03:42;;;;;;;13.00;11.00;;;11.60;39.30;;;;;;5033827;28;20166;-48
2023/04/22 04:06:08;;;;;;;14.37;12.87;;;11.60;39.30;;;;;;5033991;28;20265;-48
2023/04/22 04:08:34;;;;;;;17.00;14.60;;;11.60;39.40;;;;;;5033902;28;20194;-48
2023/04/22 04:10:59;;;;;;;20.67;13.43;;;11.60;39.50;;;;;;5034118;28;20462;-48
2023/04/22 04:13:25;;;;;;;16.30;12.30;;;11.60;39.30;;;;;;5033549;28;20174;-48
2023/04/22 04:15:51;;;;;;;15.53;12.97;;;11.50;39.50;;;;;;5033833;28;20645;-48
2023/04/22 04:18:17;;;;;;;14.63;13.13;;;11.50;39.30;;;;;;5033866;28;20301;-48
2023/04/22 04:20:42;;;;;;;15.00;13.07;;;11.50;39.40;;;;;;5031655;28;20274;-48
2023/04/22 04:23:08;;;;;;;15.70;13.10;;;11.50;39.80;;;;;;5033563;28;20204;-48
2023/04/22 04:25:37;;;;;;;15.90;12.70;;;11.40;40.10;;;;;;5033584;28;20170;-48
2023/04/22 04:28:09;;;;;;;14.07;12.65;;;11.40;39.70;;;;;;5033485;28;20174;-48
2023/04/22 04:30:36;;;;;;;13.32;11.68;;;11.40;39.70;;;;;;5033333;28;20228;-48
2023/04/22 04:33:05;;;;;;;15.27;13.07;;;11.40;39.90;;;;;;5033443;28;20194;-47
2023/04/22 04:35:33;;;;;;;18.83;12.57;;;11.50;39.90;;;;;;5033391;28;20198;-48
2023/04/22 04:37:59;;;;;;;14.98;11.77;;;11.50;39.80;;;;;;5032497;28;20202;-48
2023/04/22 04:40:28;;;;;;;20.42;13.35;;;11.50;40.20;;;;;;5033178;28;20202;-48
2023/04/22 04:42:54;;;;;;;15.63;13.05;;;11.50;40.40;;;;;;5033082;28;20181;-48
2023/04/22 04:45:21;;;;;;;13.52;12.13;;;11.50;40.10;;;;;;5033138;28;20265;-48
2023/04/22 04:47:49;;;;;;;14.90;13.23;;;11.70;40.20;;;;;;5033158;28;20213;-48
2023/04/22 04:50:15;;;;;;;13.65;11.90;;;11.70;40.20;;;;;;5032966;28;20617;-48
2023/04/22 04:52:41;;;;;;;14.48;11.50;;;11.80;40.00;;;;;;5033035;28;20260;-48
2023/04/22 04:55:07;;;;;;;15.33;11.90;;;11.80;40.20;;;;;;5015274;28;20623;-48
2023/04/22 04:57:34;;;;;;;15.05;13.45;;;11.90;40.20;;;;;;5032940;28;20400;-48
2023/04/22 05:00:00;;;;;;;13.93;12.35;;;12.00;40.00;;;;;;5033161;28;20204;-48
2023/04/22 05:02:26;;;;;;;18.10;13.23;;;12.10;40.00;;;;;;5032847;28;20177;-49
2023/04/22 05:04:51;;;;;;;14.30;12.97;;;12.20;39.80;;;;;;5032855;28;20538;-48
2023/04/22 05:07:17;;;;;;;15.90;13.30;;;12.30;39.80;;;;;;5032906;28;20265;-50
2023/04/22 05:09:43;;;;;;;20.33;14.33;;;12.40;39.70;;;;;;5032711;28;20185;-50
2023/04/22 05:12:09;;;;;;;13.53;12.10;;;12.50;39.80;;;;;;5032372;28;20412;-48
2023/04/22 05:14:34;;;;;;;17.20;13.67;;;12.60;39.80;;;;;;5032495;28;20236;-48
2023/04/22 05:17:00;;;;;;;14.87;13.37;;;12.70;39.90;;;;;;5032573;28;20300;-49
2023/04/22 05:19:26;;;;;;;15.40;12.43;;;12.80;39.70;;;;;;5032790;28;20539;-50
2023/04/22 05:21:52;;;;;;;13.87;12.33;;;12.90;39.70;;;;;;5032625;28;20178;-47
2023/04/22 05:24:18;;;;;;;15.33;12.30;;;13.00;39.60;;;;;;5032456;28;20795;-50
2023/04/22 05:26:43;;;;;;;13.13;11.73;;;13.20;39.50;;;;;;5032764;28;20181;-51
2023/04/22 05:29:09;;;;;;;12.17;11.07;;;13.40;39.50;;;;;;5032231;28;20201;-48
2023/04/22 05:31:35;;;;;;;20.27;11.50;;;13.50;39.40;;;;;;5032288;28;20440;-49
2023/04/22 05:34:00;;;;;;;13.03;11.50;;;13.60;39.20;;;;;;5014433;28;20289;-50
2023/04/22 05:36:26;;;;;;;16.60;12.63;;;13.80;39.10;;;;;;5032400;28;20650;-49
2023/04/22 05:38:52;;;;;;;14.37;12.97;;;13.90;38.90;;;;;;5032450;28;20198;-49
2023/04/22 05:41:18;;;;;;;15.23;13.67;;;14.00;38.70;;;;;;5032135;28;20404;-49
2023/04/22 05:43:44;;;;;;;14.33;12.97;;;14.10;38.60;;;;;;5031891;28;20408;-50
2023/04/22 05:46:09;;;;;;;12.47;11.27;;;14.30;38.50;;;;;;5032204;28;20258;-50
2023/04/22 05:48:35;;;;;;;13.33;12.10;;;14.40;38.30;;;;;;5031850;28;20205;-49
2023/04/22 05:51:01;;;;;;;13.00;10.80;;;14.50;38.10;;;;;;5032334;28;20226;-49
2023/04/22 05:53:26;;;;;;;14.33;11.97;;;14.70;37.90;;;;;;5031891;28;20530;-49
2023/04/22 05:55:52;;;;;;;13.83;11.13;;;14.80;37.70;;;;;;5031941;28;20694;-50
2023/04/22 05:58:18;;;;;;;12.50;11.20;;;15.00;37.60;;;;;;5032127;28;20174;-49
2023/04/22 06:00:45;;;;;;;15.77;12.23;;;15.10;37.40;;;;;;5032210;28;20397;-50
2023/04/22 06:03:10;;;;;;;13.60;11.73;;;15.30;37.20;;;;;;5032002;28;20180;-49
2023/04/22 06:05:36;;;;;;;12.70;11.53;;;15.40;37.20;;;;;;5031917;28;20182;-49
2023/04/22 06:08:02;;;;;;;15.07;12.37;;;15.50;37.10;;;;;;5031952;28;20177;-49
2023/04/22 06:10:27;;;;;;;12.57;11.37;;;15.60;36.80;;;;;;5031914;28;20193;-49
2023/04/22 06:12:53;;;;;;;12.43;11.03;;;15.80;36.80;;;;;;5031804;28;20166;-49
2023/04/22 06:15:19;;;;;;;12.30;11.03;;;15.90;36.50;;;;;;5031793;28;20181;-49
2023/04/22 06:17:45;;;;;;;14.90;11.80;;;16.00;36.30;;;;;;5031766;28;20205;-49
2023/04/22 06:20:11;;;;;;;15.33;13.70;;;16.20;36.20;;;;;;5031747;28;20281;-49
2023/04/22 06:22:37;;;;;;;12.55;11.25;;;16.40;36.10;;;;;;5031830;28;20533;-49
2023/04/22 06:25:03;;;;;;;12.90;11.60;;;16.60;36.00;;;;;;5031695;28;20273;-50
2023/04/22 06:27:29;;;;;;;12.85;11.75;;;16.70;35.90;;;;;;5031979;28;20169;-50
2023/04/22 06:29:54;;;;;;;13.27;10.80;;;16.90;35.70;;;;;;5031648;28;20701;-50
2023/04/22 06:32:20;;;;;;;13.37;12.07;;;17.10;35.10;;;;;;5031484;28;20229;-50
2023/04/22 06:34:46;;;;;;;12.97;9.97;;;17.30;35.20;;;;;;5031704;28;20700;-50
2023/04/22 06:37:12;;;;;;;11.43;10.30;;;17.40;34.20;;;;;;5031681;28;20169;-49
2023/04/22 06:39:37;;;;;;;11.10;10.00;;;17.60;33.60;;;;;;5031447;28;20208;-50
2023/04/22 06:42:03;;;;;;;10.33;9.30;;;17.80;32.50;;;;;;5031580;28;20229;-50
2023/04/22 06:44:29;;;;;;;12.40;11.03;;;17.90;32.90;;;;;;5033613;28;20162;-50
2023/04/22 06:46:55;;;;;;;10.90;9.75;;;18.10;32.60;;;;;;5035695;28;20232;-50
2023/04/22 06:49:21;;;;;;;10.80;9.70;;;18.30;32.10;;;;;;5035352;28;20824;-50
2023/04/22 06:51:47;;;;;;;10.57;9.30;;;18.40;32.40;;;;;;5035223;28;20417;-50
2023/04/22 06:54:12;;;;;;;10.70;9.70;;;18.60;32.10;;;;;;5035044;28;20654;-50
2023/04/22 06:56:38;;;;;;;14.63;10.70;;;18.80;31.80;;;;;;5035162;28;20173;-50
2023/04/22 06:59:06;;;;;;;10.43;9.13;;;18.90;30.80;;;;;;5035092;28;20178;-50
2023/04/22 07:01:32;;;;;;;12.35;9.43;;;19.10;30.70;;;;;;5035059;28;20201;-50
2023/04/22 07:03:58;;;;;;;9.97;8.97;;;19.20;29.40;;;;;;5035036;28;20201;-49
2023/04/22 07:06:24;;;;;;;10.50;9.40;;;19.30;28.90;;;;;;5035409;28;21162;-49
2023/04/22 07:08:50;;;;;;;11.00;9.90;;;19.40;28.40;;;;;;5034952;28;20197;-50
2023/04/22 07:11:15;;;;;;;10.30;9.27;;;19.60;29.30;;;;;;5035173;28;20781;-49
2023/04/22 07:13:41;;;;;;;11.20;10.10;;;19.60;29.00;;;;;;5034647;28;20904;-49
2023/04/22 07:16:07;;;;;;;9.77;8.77;;;19.80;28.90;;;;;;5034766;28;20178;-50
2023/04/22 07:18:34;;;;;;;11.37;10.27;;;19.90;28.70;;;;;;5034762;28;20186;-50
2023/04/22 07:21:00;;;;;;;13.25;9.85;;;20.20;27.60;;;;;;5035097;28;20178;-50
2023/04/22 07:23:26;;;;;;;11.18;10.07;;;20.20;27.70;;;;;;5034478;28;20177;-49
2023/04/22 07:25:52;;;;;;;10.07;9.17;;;20.30;27.30;;;;;;5034837;28;20174;-50
2023/04/22 07:28:18;;;;;;;11.13;9.33;;;20.40;27.40;;;;;;5034711;28;20178;-50
2023/04/22 07:30:44;;;;;;;10.47;9.20;;;20.50;27.50;;;;;;5034506;28;20170;-50
2023/04/22 07:33:10;;;;;;;10.45;9.27;;;20.60;26.10;;;;;;5034626;28;20178;-50
2023/04/22 07:35:36;;;;;;;12.30;8.90;;;20.70;27.00;;;;;;5034644;28;20697;-50
2023/04/22 07:38:02;;;;;;;10.80;9.70;;;20.90;26.40;;;;;;5034513;28;20400;-50
2023/04/22 07:40:27;;;;;;;8.50;7.70;;;21.00;25.90;;;;;;5034580;28;20170;-50
2023/04/22 07:42:53;;;;;;;11.90;10.70;;;21.10;26.70;;;;;;5034132;28;20197;-50
2023/04/22 07:45:19;;;;;;;8.67;7.70;;;21.30;26.60;;;;;;5034333;28;20182;-50
2023/04/22 07:47:45;;;;;;;12.67;9.30;;;21.40;26.60;;;;;;5034171;28;20700;-50
2023/04/22 07:50:11;;;;;;;12.20;10.87;;;21.60;25.80;;;;;;5034281;28;20429;-50
2023/04/22 07:52:37;;;;;;;10.38;9.27;;;21.70;24.50;;;;;;5033864;28;20174;-50
2023/04/22 07:55:03;;;;;;;9.23;8.33;;;21.80;24.40;;;;;;5033248;28;20212;-50
2023/04/22 07:57:28;;;;;;;11.50;8.77;;;21.90;24.60;;;;;;5033881;28;20206;-50
2023/04/22 07:59:54;;;;;;;8.43;7.47;;;21.90;24.90;;;;;;5033893;28;20233;-50
2023/04/22 08:02:20;;;;;;;8.90;8.10;;;22.00;24.40;;;;;;5033915;28;20228;-51
2023/04/22 08:04:46;;;;;;;11.47;8.67;;;22.20;24.20;;;;;;5033924;28;20680;-50
2023/04/22 08:07:14;;;;;;;10.10;8.97;;;22.30;24.60;;;;;;5033953;28;20404;-50
2023/04/22 08:09:39;;;;;;;9.50;8.60;;;22.40;24.40;;;;;;5034022;28;20554;-50
2023/04/22 08:12:05;;;;;;;10.87;9.33;;;22.60;24.70;;;;;;5033569;28;20938;-51
2023/04/22 08:14:31;;;;;;;9.03;8.23;;;22.70;23.20;;;;;;5033704;28;20248;-50
2023/04/22 08:16:57;;;;;;;8.97;8.10;;;22.70;23.20;;;;;;5033997;28;20261;-50
2023/04/22 08:19:22;;;;;;;9.63;8.77;;;22.70;24.20;;;;;;5033646;28;20224;-50
2023/04/22 08:21:48;;;;;;;8.53;7.73;;;22.80;23.60;;;;;;5033368;28;20584;-51
2023/04/22 08:24:14;;;;;;;9.43;8.53;;;22.80;23.80;;;;;;5033635;28;20174;-51
2023/04/22 08:26:40;;;;;;;9.90;9.00;;;23.00;24.40;;;;;;5033589;28;20178;-51
2023/04/22 08:29:06;;;;;;;10.27;9.27;;;23.10;23.40;;;;;;5033435;28;20197;-50
2023/04/22 08:31:32;;;;;;;10.33;9.23;;;23.20;23.90;;;;;;5033499;28;20538;-51
2023/04/22 08:33:58;;;;;;;10.43;8.87;;;23.40;23.20;;;;;;5033223;28;20860;-51
2023/04/22 08:36:26;;;;;;;9.57;8.37;;;23.50;22.40;;;;;;5033329;28;20934;-51
2023/04/22 08:38:52;;;;;;;12.50;8.67;;;23.60;22.30;;;;;;5033212;28;20249;-51
2023/04/22 08:41:18;;;;;;;9.43;8.50;;;23.60;21.90;;;;;;5033301;28;20916;-51
2023/04/22 08:43:45;;;;;;;9.77;8.80;;;23.70;22.70;;;;;;5033133;28;20396;-51
2023/04/22 08:46:14;;;;;;;11.53;8.80;;;23.80;22.10;;;;;;5033261;28;20409;-50
2023/04/22 08:48:40;;;;;;;9.27;8.37;;;23.90;22.60;;;;;;5032996;28;20453;-51
2023/04/22 08:51:07;;;;;;;13.37;9.93;;;23.90;22.00;;;;;;5032895;28;20773;-51
2023/04/22 08:53:32;;;;;;;9.70;8.47;;;24.00;22.80;;;;;;5032813;28;20420;-50
2023/04/22 08:55:59;;;;;;;9.10;8.20;;;24.00;22.80;;;;;;5032971;28;20460;-51
2023/04/22 08:58:27;;;;;;;10.67;8.50;;;24.00;21.70;;;;;;5032845;28;20565;-51
2023/04/22 09:00:55;;;;;;;8.03;7.23;;;24.10;21.80;;;;;;5032874;28;20405;-49
2023/04/22 09:03:22;;;;;;;8.70;7.90;;;24.20;22.90;;;;;;5032870;28;20416;-51
2023/04/22 09:05:50;;;;;;;8.53;7.73;;;24.30;22.10;;;;;;5033054;28;20417;-51
2023/04/22 09:08:16;;;;;;;7.90;7.20;;;24.50;21.40;;;;;;5032553;28;20409;-48
2023/04/22 09:10:42;;;;;;;8.40;7.60;;;24.60;21.90;;;;;;5032658;28;20444;-51
2023/04/22 09:13:09;;;;;;;10.13;7.47;;;24.60;20.50;;;;;;5032244;28;20452;-51
2023/04/22 09:15:35;;;;;;;9.20;7.90;;;24.70;20.80;;;;;;5032535;28;20202;-51
2023/04/22 09:18:03;;;;;;;8.80;7.90;;;24.80;21.00;;;;;;5032439;28;20416;-51
2023/04/22 09:20:29;;;;;;;8.37;7.67;;;24.90;20.20;;;;;;5032746;28;20811;-51
2023/04/22 09:22:56;;;;;;;8.57;7.70;;;25.00;21.10;;;;;;5032510;28;20409;-51
2023/04/22 09:25:24;;;;;;;8.23;7.00;;;24.90;19.60;;;;;;5032472;28;20408;-51
2023/04/22 09:27:55;;;;;;;9.80;8.60;;;25.00;20.00;;;;;;5032383;28;20409;-51
2023/04/22 09:30:30;;;;;;;9.70;8.20;;;25.10;19.80;;;;;;5032495;28;20435;-51
2023/04/22 09:32:58;;;;;;;7.87;6.80;;;25.20;20.50;;;;;;5032395;28;20408;-51
2023/04/22 09:35:32;;;;;;;10.27;7.57;;;25.30;19.40;;;;;;5032238;28;20912;-49
2023/04/22 09:38:00;;;;;;;7.17;6.57;;;25.40;18.10;;;;;;5032322;28;20404;-51
2023/04/22 09:40:27;;;;;;;7.87;7.17;;;25.20;17.90;;;;;;5032033;28;20421;-51
2023/04/22 09:42:55;;;;;;;9.40;7.73;;;25.20;17.60;;;;;;5031939;28;20417;-50
2023/04/22 09:45:28;;;;;;;11.90;7.00;;;25.30;18.60;;;;;;5032062;28;20416;-51
2023/04/22 09:47:55;;;;;;;7.97;7.17;;;25.40;19.00;;;;;;5032004;28;20523;-51
2023/04/22 09:50:24;;;;;;;7.87;6.40;;;25.40;18.80;;;;;;5031977;28;20470;-51
2023/04/22 09:53:03;;;;;;;8.73;6.37;;;25.50;18.30;;;;;;5031850;28;20417;-51
2023/04/22 09:55:31;;;;;;;6.73;6.10;;;25.60;18.40;;;;;;5032036;28;20498;-50
2023/04/22 09:58:03;;;;;;;8.33;5.57;;;25.70;17.50;;;;;;5031914;28;20749;-51
2023/04/22 10:00:29;;;;;;;10.77;6.87;;;25.70;17.20;;;;;;5032173;28;20413;-51
2023/04/22 10:02:55;;;;;;;7.90;6.27;;;25.60;17.10;;;;;;5031583;28;20405;-51
2023/04/22 10:05:21;;;;;;;9.97;6.27;;;25.60;17.70;;;;;;5031889;28;20474;-51
2023/04/22 10:07:47;;;;;;;9.10;6.47;;;25.70;18.10;;;;;;5031901;28;20826;-51
2023/04/22 10:10:13;;;;;;;9.30;6.00;;;25.80;17.40;;;;;;5031780;28;20471;-51
2023/04/22 10:12:39;;;;;;;13.03;6.30;;;25.70;17.00;;;;;;5031882;28;20196;-51
2023/04/22 10:15:06;;;;;;;10.00;6.33;;;25.80;17.40;;;;;;5031938;28;20964;-51
2023/04/22 10:17:37;;;;;;;9.77;6.60;;;25.90;18.10;;;;;;5031808;28;20209;-51
2023/04/22 10:20:12;;;;;;;6.80;5.70;;;26.10;17.60;;;;;;5034733;28;20444;-51
2023/04/22 10:22:41;;;;;;;7.67;5.83;;;26.20;18.90;;;;;;5035568;28;20404;-51
2023/04/22 10:25:27;;;;;;;9.20;6.10;;;26.20;17.70;;;;;;5036127;28;20409;-51
2023/04/22 10:28:03;;;;;;;9.53;5.70;;;26.30;16.70;;;;;;5035647;28;20499;-51
2023/04/22 10:30:31;;;;;;;7.20;6.50;;;26.30;16.70;;;;;;5035758;28;20385;-51
2023/04/22 10:33:20;;;;;;;13.43;6.87;;;26.20;17.70;;;;;;5035469;28;20396;-51
2023/04/22 10:36:04;;;;;;;7.90;6.30;;;26.10;17.80;;;;;;5035462;28;20449;-51
2023/04/22 10:38:37;;;;;;;7.17;6.07;;;26.20;18.30;;;;;;5035749;28;20423;-52
2023/04/22 10:41:03;;;;;;;7.50;5.87;;;26.20;17.90;;;;;;5035563;28;20389;-51
2023/04/22 10:43:45;;;;;;;6.00;5.30;;;26.20;17.80;;;;;;5035150;28;20916;-51
2023/04/22 10:46:30;;;;;;;7.50;5.43;;;26.30;17.70;;;;;;5035711;28;20400;-51
2023/04/22 10:48:56;;;;;;;8.87;7.03;;;26.40;17.50;;;;;;5035152;28;20458;-51
2023/04/22 10:51:41;;;;;;;6.67;5.17;;;26.50;17.60;;;;;;5035545;28;20409;-51
2023/04/22 10:54:27;;;;;;;7.93;6.63;;;26.50;16.70;;;;;;5035291;28;20292;-51
2023/04/22 10:57:00;;;;;;;8.87;5.57;;;26.40;16.60;;;;;;4984941;28;20419;-51
2023/04/22 10:59:26;;;;;;;6.70;5.90;;;26.30;17.20;;;;;;5035355;28;20425;-51
2023/04/22 11:01:52;;;;;;;7.00;5.37;;;26.30;16.50;;;;;;5034827;28;20496;-51
2023/04/22 11:04:21;;;;;;;6.63;5.73;;;26.10;16.60;;;;;;5035266;28;20405;-51
2023/04/22 11:07:16;;;;;;;7.00;5.43;;;26.30;18.90;;;;;;5035324;28;20328;-51
2023/04/22 11:09:45;;;;;;;6.23;5.63;;;26.60;17.30;;;;;;5034953;28;20916;-51
2023/04/22 11:12:38;;;;;;;8.13;5.87;;;26.70;17.30;;;;;;5034680;28;20420;-52
2023/04/22 11:15:15;;;;;;;7.60;5.87;;;26.90;16.80;;;;;;5034845;28;20459;-52
2023/04/22 11:17:46;;;;;;;7.83;6.00;;;26.90;17.00;;;;;;5034903;28;20412;-52
2023/04/22 11:20:17;;;;;;;9.13;6.17;;;27.00;17.70;;;;;;5035077;28;20421;-52
2023/04/22 11:22:56;;;;;;;7.00;5.97;;;27.10;17.40;;;;;;5034584;28;20479;-52
2023/04/22 11:25:23;;;;;;;8.47;6.50;;;27.30;17.20;;;;;;5034547;28;20773;-52
2023/04/22 11:27:49;;;;;;;6.63;6.10;;;27.30;17.10;;;;;;5034974;28;20408;-52
2023/04/22 11:30:17;;;;;;;5.97;5.37;;;27.40;17.00;;;;;;5034576;28;20515;-52
2023/04/22 11:32:51;;;;;;;6.33;5.47;;;27.20;16.40;;;;;;5034477;28;20405;-52
2023/04/22 11:35:19;;;;;;;7.77;5.20;;;26.90;16.60;;;;;;5034336;28;20448;-52
2023/04/22 11:37:50;;;;;;;10.53;5.70;;;26.90;17.80;;;;;;5034720;28;20400;-51
2023/04/22 11:40:19;;;;;;;6.90;6.20;;;27.10;18.20;;;;;;5034424;28;20465;-52
2023/04/22 11:42:45;;;;;;;13.50;6.63;;;27.30;17.50;;;;;;5034379;28;20405;-52
2023/04/22 11:45:12;;;;;;;7.50;6.33;;;27.40;17.50;;;;;;5034357;28;20508;-52
2023/04/22 11:47:39;;;;;;;7.57;5.70;;;27.40;16.70;;;;;;5034218;28;21090;-52
2023/04/22 11:50:08;;;;;;;7.37;5.23;;;27.40;16.80;;;;;;5034480;28;20424;-52
2023/04/22 11:52:46;;;;;;;8.93;6.13;;;27.50;17.10;;;;;;5034039;28;20412;-52
2023/04/22 11:55:13;;;;;;;7.80;5.00;;;27.70;17.60;;;;;;5034011;28;20456;-52
2023/04/22 11:57:40;;;;;;;7.90;4.87;;;27.70;16.70;;;;;;5034249;28;20408;-52
2023/04/22 12:00:09;;;;;;;6.63;5.37;;;27.80;15.70;;;;;;5034086;28;20461;-52
2023/04/22 12:02:35;;;;;;;6.47;5.30;;;27.70;16.50;;;;;;5033634;28;20494;-53
2023/04/22 12:05:02;;;;;;;7.50;4.47;;;27.90;17.00;;;;;;5034049;28;20439;-51
2023/04/22 12:07:28;;;;;;;7.07;5.80;;;27.80;15.70;;;;;;5034191;28;20275;-52
2023/04/22 12:09:55;;;;;;;7.60;5.20;;;27.90;15.40;;;;;;5034097;28;20439;-52
2023/04/22 12:12:27;;;;;;;6.47;5.87;;;27.90;16.60;;;;;;5033562;28;20482;-52
2023/04/22 12:14:53;;;;;;;8.03;5.83;;;28.10;16.70;;;;;;5034022;28;20462;-52
2023/04/22 12:17:23;;;;;;;5.90;5.30;;;28.40;17.40;;;;;;5033613;28;20944;-52
2023/04/22 12:19:56;;;;;;;6.20;5.60;;;28.50;16.20;;;;;;5033962;28;20196;-52
2023/04/22 12:22:29;;;;;;;6.77;5.03;;;28.50;15.10;;;;;;5033767;28;20393;-52
2023/04/22 12:24:58;;;;;;;6.83;5.10;;;28.30;16.20;;;;;;5033799;28;20399;-52
2023/04/22 12:27:24;;;;;;;9.17;6.00;;;28.10;16.90;;;;;;5033481;28;20504;-52
2023/04/22 12:29:52;;;;;;;8.10;7.07;;;28.00;16.50;;;;;;5033201;28;20429;-51
2023/04/22 12:32:24;;;;;;;8.27;5.30;;;28.10;16.50;;;;;;5033396;28;20189;-52
2023/04/22 12:34:49;;;;;;;6.50;5.60;;;28.10;16.40;;;;;;5033338;28;20817;-52
2023/04/22 12:37:16;;;;;;;6.20;5.60;;;28.10;16.70;;;;;;5033465;28;20500;-52